Terminal Aerodrome Forecast
Issued by NWS

Home | Current Version | Previous Version | Text Only | Print | Product List | Glossary On
Versions: 1 2 3 4 5 6 7 8 9 10 11 12 13
000
FTUS42 TJSJ 020500
TAFKPK
TAF
TKPK 020530Z 0206/0306 06012KT P6SM FEW022
     FM021300 06018KT P6SM FEW018
     FM022300 06013KT P6SM VCSH SCT018 SCT030
      AMD NOT SKED TIL 021100=

USA.gov is the U.S. government's official web portal to all federal, state and local government web resources and services.